Time;durP1;ratioP1;P1;durP2;ratioP2;P2;SDS_P1;SDS_P2;PMS_P1;PMS_P2;Temp;Humidity;BMP_temperature;BMP_pressure;BME280_temperature;BME280_humidity;BME280_pressure;Samples;Min_cycle;Max_cycle;Signal;HPM_P1;HPM_P2
2024/01/04 00:02:50;;;;;;;83.50;48.58;;;;;;;;;;5095587;27;20114;-74
2024/01/04 00:05:54;;;;;;;89.15;49.60;;;;;;;;;;5095884;27;20396;-75
2024/01/04 00:08:58;;;;;;;90.53;49.40;;;;;;;;;;5048041;28;20040;-74
2024/01/04 00:12:03;;;;;;;82.90;48.38;;;;;;;;;;5048094;28;20044;-74
2024/01/04 00:15:08;;;;;;;82.80;50.60;;;;;;;;;;5048115;28;20393;-75
2024/01/04 00:18:12;;;;;;;81.20;48.22;;;;;;;;;;5130932;27;20050;-74
2024/01/04 00:21:17;;;;;;;84.40;44.83;;;;;;;;;;5132364;27;20046;-74
2024/01/04 00:24:21;;;;;;;77.80;43.17;;;;;;;;;;5131761;27;20042;-75
2024/01/04 00:27:25;;;;;;;80.93;44.63;;;;;;;;;;5132283;27;20509;-74
2024/01/04 00:30:29;;;;;;;77.45;42.35;;;;;;;;;;5132043;28;20054;-74
2024/01/04 00:33:34;;;;;;;70.10;39.47;;;;;;;;;;5130812;28;20196;-74
2024/01/04 00:36:38;;;;;;;75.57;37.88;;;;;;;;;;5132081;28;20108;-74
2024/01/04 00:39:42;;;;;;;75.18;38.47;;;;;;;;;;5131088;28;20050;-74
2024/01/04 00:42:46;;;;;;;63.55;36.20;;;;;;;;;;5130995;28;20075;-74
2024/01/04 00:45:51;;;;;;;65.50;34.08;;;;;;;;;;5130771;28;20042;-75
2024/01/04 00:48:55;;;;;;;66.53;37.97;;;;;;;;;;5131824;28;20043;-74
2024/01/04 00:52:00;;;;;;;60.92;33.97;;;;;;;;;;5131779;27;20050;-74
2024/01/04 00:55:04;;;;;;;61.25;33.95;;;;;;;;;;5130511;28;20062;-75
2024/01/04 00:58:09;;;;;;;63.90;32.63;;;;;;;;;;5130990;28;20046;-74
2024/01/04 01:01:14;;;;;;;77.68;35.22;;;;;;;;;;5135514;27;20046;-75
2024/01/04 01:04:18;;;;;;;60.63;30.88;;;;;;;;;;5135743;27;20046;-74
2024/01/04 01:07:23;;;;;;;53.38;28.00;;;;;;;;;;5135981;27;20061;-75
2024/01/04 01:10:29;;;;;;;59.20;27.63;;;;;;;;;;5135728;27;20042;-74
2024/01/04 01:13:33;;;;;;;59.38;26.75;;;;;;;;;;5134773;27;20050;-74
2024/01/04 01:16:37;;;;;;;58.75;25.15;;;;;;;;;;5133255;27;20194;-74
2024/01/04 01:19:42;;;;;;;56.78;26.02;;;;;;;;;;5050848;28;20048;-74
2024/01/04 01:22:46;;;;;;;52.63;26.13;;;;;;;;;;5050983;28;20064;-74
2024/01/04 01:25:50;;;;;;;44.58;22.75;;;;;;;;;;5050497;28;20044;-74
2024/01/04 01:28:54;;;;;;;46.58;22.98;;;;;;;;;;5050598;28;20044;-74
2024/01/04 01:31:58;;;;;;;43.10;20.48;;;;;;;;;;5050685;28;20052;-74
2024/01/04 01:35:02;;;;;;;45.85;18.63;;;;;;;;;;5050400;28;20044;-74
2024/01/04 01:38:07;;;;;;;45.47;20.55;;;;;;;;;;5050463;28;20036;-75
2024/01/04 01:41:12;;;;;;;48.97;22.70;;;;;;;;;;5050524;28;20043;-74
2024/01/04 01:44:16;;;;;;;46.42;20.88;;;;;;;;;;5050633;28;20503;-74
2024/01/04 01:47:22;;;;;;;55.45;20.52;;;;;;;;;;5050445;28;20384;-74
2024/01/04 01:50:26;;;;;;;50.47;20.65;;;;;;;;;;5098589;27;20045;-74
2024/01/04 01:53:31;;;;;;;45.85;21.48;;;;;;;;;;5049978;28;20416;-74
2024/01/04 01:56:35;;;;;;;48.60;21.58;;;;;;;;;;5050164;28;20044;-74
2024/01/04 01:59:39;;;;;;;45.55;20.17;;;;;;;;;;5098471;27;20056;-75
2024/01/04 02:02:45;;;;;;;43.92;19.20;;;14.80;99.90;;;;;;5049818;28;20060;-74
2024/01/04 02:05:51;;;;;;;37.08;19.80;;;;;;;;;;5097508;27;20409;-74
2024/01/04 02:08:56;;;;;;;46.38;19.17;;;;;;;;;;5097615;27;20397;-74
2024/01/04 02:12:05;;;;;;;38.92;18.42;;;13.90;99.90;;;;;;5096677;27;20048;-74
2024/01/04 02:15:12;;;;;;;42.83;19.40;;;;;;;;;;5097472;27;20102;-73
2024/01/04 02:18:16;;;;;;;45.72;18.58;;;;;;;;;;5097140;27;20052;-73
2024/01/04 02:21:21;;;;;;;37.00;18.60;;;;;;;;;;5049394;28;20044;-73
2024/01/04 02:24:26;;;;;;;40.15;18.65;;;;;;;;;;5096261;27;20049;-73
2024/01/04 02:27:31;;;;;;;47.95;19.75;;;;;;;;;;5049441;28;20044;-73
2024/01/04 02:30:38;;;;;;;45.25;18.88;;;13.60;99.90;;;;;;5049683;28;20048;-73
2024/01/04 02:33:42;;;;;;;36.72;17.17;;;;;;;;;;5097016;27;20381;-74
2024/01/04 02:36:50;;;;;;;36.40;17.38;;;;;;;;;;5049630;28;20044;-73
2024/01/04 02:39:54;;;;;;;40.70;16.38;;;;;;;;;;5097258;27;20044;-73
2024/01/04 02:42:59;;;;;;;45.40;17.58;;;;;;;;;;5049631;28;20044;-73
2024/01/04 02:46:03;;;;;;;37.13;17.95;;;;;;;;;;5049188;28;20549;-73
2024/01/04 02:49:07;;;;;;;40.97;17.77;;;;;;;;;;5096639;27;20052;-74
2024/01/04 02:52:12;;;;;;;37.28;18.52;;;;;;;;;;5049046;28;20416;-74
2024/01/04 02:55:18;;;;;;;37.63;18.48;;;;;;;;;;5096834;27;20048;-74
2024/01/04 02:58:22;;;;;;;48.88;20.50;;;;;;;;;;5097011;27;20044;-74
2024/01/04 03:01:26;;;;;;;46.50;21.65;;;;;;;;;;5049037;28;20044;-73
2024/01/04 03:04:31;;;;;;;44.28;21.25;;;;;;;;;;5049011;28;20036;-74
2024/01/04 03:07:35;;;;;;;49.05;20.02;;;;;;;;;;5049102;28;20051;-73
2024/01/04 03:10:42;;;;;;;40.17;21.25;;;;;;;;;;5049021;28;20044;-74
2024/01/04 03:13:46;;;;;;;45.72;20.08;;;;;;;;;;5048538;28;20044;-74
2024/01/04 03:16:51;;;;;;;40.53;20.50;;;;;;;;;;5048191;28;20048;-74
2024/01/04 03:19:55;;;;;;;49.20;20.40;;;;;;;;;;5048905;28;20044;-73
2024/01/04 03:22:59;;;;;;;46.25;20.45;;;;;;;;;;5048196;28;20393;-73
2024/01/04 03:26:04;;;;;;;46.30;19.85;;;;;;;;;;5048588;28;20048;-73
2024/01/04 03:29:08;;;;;;;44.45;20.52;;;;;;;;;;5096104;27;20396;-74
2024/01/04 03:32:13;;;;;;;46.25;19.80;;;;;;;;;;5048401;28;20052;-73
2024/01/04 03:35:17;;;;;;;40.58;19.13;;;;;;;;;;5048622;28;20052;-73
2024/01/04 03:38:21;;;;;;;43.50;18.45;;;;;;;;;;5096149;27;20044;-74
2024/01/04 03:41:25;;;;;;;44.08;18.40;;;;;;;;;;5048516;28;20044;-74
2024/01/04 03:44:30;;;;;;;39.45;19.83;;;;;;;;;;5048209;28;20047;-74
2024/01/04 03:47:34;;;;;;;43.05;17.75;;;;;;;;;;5095643;27;20052;-74
2024/01/04 03:50:38;;;;;;;38.53;18.67;;;;;;;;;;5048424;28;20431;-74
2024/01/04 03:53:43;;;;;;;50.42;19.15;;;;;;;;;;5048153;28;20056;-74
2024/01/04 03:56:47;;;;;;;38.50;20.55;;;13.40;99.90;;;;;;5095968;27;20042;-73
2024/01/04 03:59:52;;;;;;;39.35;17.73;;;;;;;;;;5048026;28;20068;-75
2024/01/04 04:02:57;;;;;;;42.65;18.13;;;;;;;;;;5048418;28;20404;-74
2024/01/04 04:06:07;;;;;;;40.08;17.63;;;13.50;99.90;;;;;;5096099;27;20044;-73
2024/01/04 04:09:12;;;;;;;38.22;18.23;;;;;;;;;;5048039;28;20048;-74
2024/01/04 04:12:16;;;;;;;34.78;16.08;;;;;;;;;;5095496;27;20044;-73
2024/01/04 04:15:20;;;;;;;43.90;16.88;;;;;;;;;;5047814;28;20048;-74
2024/01/04 04:18:25;;;;;;;37.15;16.33;;;;;;;;;;5047619;28;20044;-73
2024/01/04 04:21:29;;;;;;;35.55;16.75;;;;;;;;;;5047740;28;20408;-74
2024/01/04 04:24:34;;;;;;;39.05;15.82;;;;;;;;;;5047797;28;20507;-73
2024/01/04 04:27:38;;;;;;;32.78;16.67;;;;;;;;;;5047681;28;20110;-73
2024/01/04 04:30:42;;;;;;;29.30;16.15;;;;;;;;;;5051559;28;20048;-73
2024/01/04 04:33:47;;;;;;;38.20;15.75;;;13.30;99.90;;;;;;5047071;28;20404;-73
2024/01/04 04:36:51;;;;;;;38.67;15.93;;;;;;;;;;5047350;28;20040;-73
2024/01/04 04:39:56;;;;;;;28.23;15.85;;;;;;;;;;5047822;28;20048;-75
2024/01/04 04:43:00;;;;;;;30.92;15.38;;;;;;;;;;5047310;28;20040;-75
2024/01/04 04:46:09;;;;;;;36.83;17.13;;;;;;;;;;5047546;28;20576;-74
2024/01/04 04:49:13;;;;;;;36.35;16.30;;;;;;;;;;5047497;28;20048;-75
2024/01/04 04:52:17;;;;;;;34.58;15.32;;;;;;;;;;5047338;28;20401;-75
2024/01/04 04:55:21;;;;;;;41.13;17.25;;;;;;;;;;5094536;28;20056;-75
2024/01/04 04:58:25;;;;;;;32.72;14.95;;;;;;;;;;5047296;28;20044;-75
2024/01/04 05:01:30;;;;;;;38.03;15.63;;;;;;;;;;5047130;28;20052;-74
2024/01/04 05:04:34;;;;;;;35.53;12.93;;;;;;;;;;5047116;28;20052;-74
2024/01/04 05:07:38;;;;;;;26.27;11.68;;;;;;;;;;5094334;28;20066;-75
2024/01/04 05:10:43;;;;;;;23.80;7.53;;;;;;;;;;5094347;28;20381;-75
2024/01/04 05:13:47;;;;;;;17.23;6.35;;;;;;;;;;5046798;28;20067;-74
2024/01/04 05:16:51;;;;;;;24.77;5.97;;;;;;;;;;5094419;28;20044;-74
2024/01/04 05:19:55;;;;;;;23.15;6.38;;;;;;;;;;5047110;28;20053;-74
2024/01/04 05:23:00;;;;;;;18.27;5.03;;;;;;;;;;5047092;28;20661;-74
2024/01/04 05:26:04;;;;;;;21.73;5.88;;;;;;;;;;5047190;28;20044;-74
2024/01/04 05:29:09;;;;;;;20.95;5.55;;;;;;;;;;5047037;28;20510;-74
2024/01/04 05:32:13;;;;;;;18.10;5.75;;;;;;;;;;5047052;28;20507;-74
2024/01/04 05:35:17;;;;;;;18.98;5.68;;;;;;;;;;5094739;28;20048;-75
2024/01/04 05:38:22;;;;;;;25.83;5.35;;;;;;;;;;5046621;28;20154;-74
2024/01/04 05:41:26;;;;;;;14.48;4.63;;;;;;;;;;5093824;28;20044;-74
2024/01/04 05:44:30;;;;;;;18.20;5.65;;;;;;;;;;5094532;28;20040;-74
2024/01/04 05:47:35;;;;;;;14.73;4.80;;;;;;;;;;5049480;28;20051;-74
2024/01/04 05:50:39;;;;;;;23.98;5.88;;;;;;;;;;5098632;27;20108;-74
2024/01/04 05:53:43;;;;;;;22.60;6.43;;;;;;;;;;5050235;28;20052;-74
2024/01/04 05:56:48;;;;;;;17.08;5.20;;;;;;;;;;5050633;28;20040;-74
2024/01/04 05:59:53;;;;;;;20.63;5.38;;;;;;;;;;5050393;28;20499;-75
2024/01/04 06:02:57;;;;;;;23.58;5.68;;;;;;;;;;5050189;28;20048;-74
2024/01/04 06:06:01;;;;;;;23.77;7.28;;;;;;;;;;5098173;27;20507;-74
2024/01/04 06:09:05;;;;;;;19.40;5.72;;;;;;;;;;5050243;28;20040;-74
2024/01/04 06:12:10;;;;;;;22.60;6.80;;;;;;;;;;5050302;28;20036;-74
2024/01/04 06:15:14;;;;;;;32.95;9.77;;;;;;;;;;5050091;28;20396;-74
2024/01/04 06:18:18;;;;;;;16.77;7.22;;;;;;;;;;5049747;28;20068;-74
2024/01/04 06:21:23;;;;;;;32.45;8.77;;;;;;;;;;5097822;27;20044;-74
2024/01/04 06:24:27;;;;;;;22.90;8.50;;;;;;;;;;5049729;28;20048;-74
2024/01/04 06:27:31;;;;;;;27.92;8.55;;;;;;;;;;5049773;28;20044;-74
2024/01/04 06:30:38;;;;;;;23.85;7.47;;;14.10;99.90;;;;;;5097570;27;20040;-74
2024/01/04 06:33:42;;;;;;;22.10;7.78;;;;;;;;;;5049674;28;20052;-74
2024/01/04 06:36:47;;;;;;;32.70;8.82;;;;;;;;;;5049604;28;20389;-74
2024/01/04 06:39:52;;;;;;;24.00;7.43;;;;;;;;;;5049872;28;20044;-74
2024/01/04 06:42:56;;;;;;;17.75;6.10;;;;;;;;;;5049896;28;20052;-74
2024/01/04 06:46:01;;;;;;;30.23;7.57;;;15.40;99.90;;;;;;5049468;28;20040;-74
2024/01/04 06:49:06;;;;;;;34.63;12.07;;;;;;;;;;5097303;27;20411;-74
2024/01/04 06:52:10;;;;;;;51.08;21.63;;;;;;;;;;5049583;28;20068;-74
2024/01/04 06:55:15;;;;;;;39.10;13.85;;;13.90;99.90;;;;;;5049569;28;20059;-74
2024/01/04 06:58:20;;;;;;;32.20;14.05;;;;;;;;;;5048711;28;20055;-74
2024/01/04 07:01:24;;;;;;;31.17;13.05;;;;;;;;;;5049110;28;20400;-63
2024/01/04 07:04:28;;;;;;;32.15;11.10;;;;;;;;;;5048633;28;20048;-64
2024/01/04 07:07:33;;;;;;;26.38;9.63;;;13.90;99.90;;;;;;5048787;28;20052;-63
2024/01/04 07:10:40;;;;;;;30.65;9.45;;;;;;;;;;5048699;28;20139;-62
2024/01/04 07:13:44;;;;;;;24.00;9.63;;;;;;;;;;5048276;28;20057;-63
2024/01/04 07:16:50;;;;;;;30.55;9.40;;;;;;;;;;5048816;28;20092;-62
2024/01/04 07:19:54;;;;;;;29.75;9.43;;;;;;;;;;5048840;28;20056;-62
2024/01/04 07:22:58;;;;;;;26.35;10.88;;;;;;;;;;5048670;28;20052;-62
2024/01/04 07:26:02;;;;;;;30.55;11.02;;;;;;;;;;5048744;28;20071;-62
2024/01/04 07:29:07;;;;;;;36.25;11.10;;;;;;;;;;5048898;28;20390;-62
2024/01/04 07:32:11;;;;;;;33.45;11.80;;;;;;;;;;5048530;28;20044;-61
2024/01/04 07:35:16;;;;;;;26.52;10.73;;;;;;;;;;5048424;28;20048;-61
2024/01/04 07:38:21;;;;;;;26.20;10.07;;;;;;;;;;5048545;28;20051;-61
2024/01/04 07:41:25;;;;;;;30.95;9.25;;;;;;;;;;5048549;28;20056;-62
2024/01/04 07:44:30;;;;;;;24.80;10.77;;;;;;;;;;5048439;28;20044;-62
2024/01/04 07:47:37;;;;;;;25.88;9.77;;;;;;;;;;5095534;27;20051;-62
2024/01/04 07:50:41;;;;;;;24.27;9.35;;;;;;;;;;5048386;28;20046;-62
2024/01/04 07:53:46;;;;;;;38.97;11.40;;;;;;;;;;5094769;27;20048;-62
2024/01/04 07:56:50;;;;;;;36.33;11.70;;;;;;;;;;5047929;28;20036;-62
2024/01/04 07:59:57;;;;;;;25.60;12.23;;;;;;;;;;5048128;28;20518;-63
2024/01/04 08:03:03;;;;;;;40.28;13.27;;;;;;;;;;5047927;28;20044;-63
2024/01/04 08:06:07;;;;;;;37.20;13.35;;;;;;;;;;5047814;28;20048;-64
2024/01/04 08:09:12;;;;;;;29.98;11.85;;;;;;;;;;5094394;27;20043;-63
2024/01/04 08:12:16;;;;;;;35.72;13.60;;;;;;;;;;5048103;28;20499;-62
2024/01/04 08:15:20;;;;;;;41.00;12.77;;;;;;;;;;5095438;27;20420;-61
2024/01/04 08:18:25;;;;;;;37.92;13.35;;;;;;;;;;5047756;28;20048;-61
2024/01/04 08:21:29;;;;;;;34.15;12.55;;;;;;;;;;5047583;28;20495;-61
2024/01/04 08:24:33;;;;;;;44.70;13.50;;;;;;;;;;5047609;28;20044;-60
2024/01/04 08:27:38;;;;;;;38.33;13.10;;;;;;;;;;5047931;28;20044;-60
2024/01/04 08:30:42;;;;;;;32.47;12.32;;;;;;;;;;5048198;28;20044;-61
2024/01/04 08:33:47;;;;;;;29.30;12.05;;;;;;;;;;5047461;28;20060;-63
2024/01/04 08:36:51;;;;;;;45.47;13.50;;;;;;;;;;5047772;28;20048;-62
2024/01/04 08:39:56;;;;;;;35.17;12.52;;;;;;;;;;5047816;28;20048;-62
2024/01/04 08:43:01;;;;;;;22.25;11.25;;;;;;;;;;5047853;28;20064;-62
2024/01/04 08:46:05;;;;;;;29.75;11.07;;;;;;;;;;5047712;28;20377;-62
2024/01/04 08:49:11;;;;;;;24.33;10.00;;;;;;;;;;5047663;28;20404;-62
2024/01/04 08:52:15;;;;;;;20.10;9.30;;;;;;;;;;5047627;28;20496;-62
2024/01/04 08:55:20;;;;;;;38.85;10.70;;;;;;;;;;5047470;28;20062;-62
2024/01/04 08:58:24;;;;;;;17.60;6.28;;;;;;;;;;5047515;28;20393;-61
2024/01/04 09:01:28;;;;;;;20.45;5.18;;;;;;;;;;5047624;28;20055;-62
2024/01/04 09:04:33;;;;;;;18.48;5.05;;;;;;;;;;5047419;28;20397;-62
2024/01/04 09:07:37;;;;;;;21.73;5.75;;;;;;;;;;5047303;28;20044;-61
2024/01/04 09:10:41;;;;;;;15.18;4.32;;;;;;;;;;5047497;28;20040;-61
2024/01/04 09:13:47;;;;;;;19.95;4.85;;;;;;;;;;5046987;28;20358;-62
2024/01/04 09:16:51;;;;;;;30.92;5.47;;;;;;;;;;5046904;28;20036;-62
2024/01/04 09:19:55;;;;;;;14.48;3.65;;;;;;;;;;5047115;28;20048;-62
2024/01/04 09:22:59;;;;;;;23.65;5.50;;;;;;;;;;5050641;28;20040;-62
2024/01/04 09:26:08;;;;;;;22.33;6.28;;;;;;;;;;5050569;28;20044;-62
2024/01/04 09:29:13;;;;;;;17.48;5.70;;;;;;;;;;5050724;28;20052;-62
2024/01/04 09:32:18;;;;;;;15.85;4.90;;;;;;;;;;5050296;28;20048;-62
2024/01/04 09:35:25;;;;;;;15.38;3.90;;;;;;;;;;5050576;28;20044;-63
2024/01/04 09:38:32;;;;;;;11.65;3.55;;;;;;;;;;5050389;28;20044;-62
2024/01/04 09:41:44;;;;;;;19.00;3.55;;;;;;;;;;5050481;28;20040;-62
2024/01/04 09:44:52;;;;;;;20.13;4.65;;;19.70;99.90;;;;;;5050246;28;20056;-62
2024/01/04 09:47:57;;;;;;;16.27;3.70;;;;;;;;;;5050039;28;20392;-62
2024/01/04 09:51:02;;;;;;;17.55;3.35;;;;;;;;;;5050354;28;20052;-62
2024/01/04 09:54:10;;;;;;;14.52;3.97;;;;;;;;;;5049780;28;20056;-63
2024/01/04 09:57:14;;;;;;;9.25;3.40;;;;;;;;;;5050065;28;20040;-62
2024/01/04 10:00:18;;;;;;;14.38;3.30;;;;;;;;;;5050000;28;20041;-62
2024/01/04 10:03:23;;;;;;;11.25;3.28;;;;;;;;;;5097460;27;20068;-62
2024/01/04 10:06:32;;;;;;;18.73;3.95;;;18.80;99.90;;;;;;5049934;28;20040;-62
2024/01/04 10:10:00;;;;;;;12.02;3.75;;;18.80;99.90;;;;;;5050088;28;20052;-62
2024/01/04 10:13:05;;;;;;;12.10;3.75;;;;;;;;;;5049724;28;20064;-62
2024/01/04 10:16:13;;;;;;;15.23;3.60;;;;;;;;;;5049888;28;20052;-62
2024/01/04 10:19:19;;;;;;;16.55;3.22;;;;;;;;;;5049747;28;20044;-62
2024/01/04 10:22:24;;;;;;;20.42;3.90;;;;;;;;;;5049740;28;20059;-61
2024/01/04 10:25:33;;;;;;;19.13;4.05;;;;;;;;;;5049211;28;20052;-63
2024/01/04 10:28:40;;;;;;;12.35;3.28;;;19.30;99.90;;;;;;5048458;28;20044;-63
2024/01/04 10:31:44;;;;;;;14.15;3.17;;;;;;;;;;5049264;28;20052;-62
2024/01/04 10:34:48;;;;;;;18.25;3.85;;;;;;;;;;5049110;28;20076;-62
2024/01/04 10:38:01;;;;;;;17.00;3.22;;;18.30;99.40;;;;;;5049764;28;20044;-62
2024/01/04 10:41:06;;;;;;;12.13;2.63;;;;;;;;;;5049645;28;20048;-62
2024/01/04 10:44:10;;;;;;;13.55;2.90;;;;;;;;;;5049526;28;20044;-61
2024/01/04 10:47:15;;;;;;;17.50;3.22;;;;;;;;;;5049432;28;20044;-63
2024/01/04 10:50:22;;;;;;;21.85;4.20;;;19.40;99.90;;;;;;5049537;28;20032;-62
2024/01/04 10:53:30;;;;;;;25.50;4.00;;;19.00;99.90;;;;;;5049219;28;20048;-61
2024/01/04 10:56:35;;;;;;;15.50;3.53;;;;;;;;;;5049024;28;20040;-62
2024/01/04 10:59:43;;;;;;;11.95;2.63;;;19.50;99.90;;;;;;5049299;28;20051;-62
2024/01/04 11:02:48;;;;;;;15.05;3.30;;;;;;;;;;5049078;28;20048;-62
2024/01/04 11:05:52;;;;;;;13.60;3.50;;;;;;;;;;5049116;28;20048;-61
2024/01/04 11:08:56;;;;;;;20.15;3.30;;;;;;;;;;5049297;28;20056;-62
2024/01/04 11:12:02;;;;;;;16.70;3.10;;;;;;;;;;5049244;28;20595;-62
2024/01/04 11:15:12;;;;;;;19.23;4.28;;;19.80;99.90;;;;;;5048982;28;20060;-64
2024/01/04 11:18:29;;;;;;;16.20;3.20;;;19.70;99.90;;;;;;5048758;28;20056;-63
2024/01/04 11:21:55;;;;;;;15.02;3.22;;;19.70;99.60;;;;;;5048881;28;20044;-63
2024/01/04 11:25:20;;;;;;;16.45;3.15;;;19.60;99.70;;;;;;5048946;28;20047;-63
2024/01/04 11:28:25;;;;;;;16.38;3.30;;;;;;;;;;5048492;28;20126;-64
2024/01/04 11:31:29;;;;;;;14.05;2.92;;;;;;;;;;5048839;28;20059;-63
2024/01/04 11:34:33;;;;;;;6.75;2.75;;;;;;;;;;5049108;28;20056;-64
2024/01/04 11:37:38;;;;;;;10.77;2.80;;;;;;;;;;5048673;28;20033;-63
2024/01/04 11:40:49;;;;;;;14.90;3.10;;;19.40;99.90;;;;;;5048289;28;20056;-63
2024/01/04 11:43:54;;;;;;;18.67;3.45;;;;;;;;;;5048511;28;20381;-63
2024/01/04 11:46:59;;;;;;;14.88;3.13;;;;;;;;;;5048416;28;20040;-63
2024/01/04 11:50:16;;;;;;;15.93;3.72;;;19.30;99.90;;;;;;5048419;28;20388;-63
2024/01/04 11:53:21;;;;;;;17.58;3.38;;;;;;;;;;5048186;28;20052;-63
2024/01/04 11:56:25;;;;;;;18.65;3.63;;;;;;;;;;5048546;28;20098;-62
2024/01/04 11:59:32;;;;;;;14.13;3.80;;;;;;;;;;5048463;28;20503;-63
2024/01/04 12:02:36;;;;;;;17.80;3.17;;;;;;;;;;5048147;28;20052;-62
2024/01/04 12:05:50;;;;;;;19.92;3.45;;;18.40;99.60;;;;;;5048070;28;20039;-62
2024/01/04 12:09:01;;;;;;;15.77;2.88;;;18.50;99.00;;;;;;5048082;28;20484;-62
2024/01/04 12:12:08;;;;;;;13.85;3.22;;;;;;;;;;5048186;28;20040;-62
2024/01/04 12:15:13;;;;;;;9.52;2.50;;;;;;;;;;5047748;28;20043;-63
2024/01/04 12:18:17;;;;;;;22.88;3.63;;;20.50;99.50;;;;;;5047922;28;20041;-63
2024/01/04 12:21:21;;;;;;;17.25;3.45;;;;;;;;;;5047721;28;20653;-63
2024/01/04 12:24:25;;;;;;;13.82;2.80;;;;;;;;;;5047862;28;20044;-63
2024/01/04 12:27:32;;;;;;;11.18;2.70;;;;;;;;;;5047698;28;20048;-62
2024/01/04 12:30:40;;;;;;;14.23;3.35;;;18.70;99.40;;;;;;5048125;28;20048;-63
2024/01/04 12:33:49;;;;;;;12.02;2.88;;;;;;;;;;5047683;28;20048;-63
2024/01/04 12:37:03;;;;;;;17.35;3.63;;;19.30;99.80;;;;;;5047857;28;20515;-63
2024/01/04 12:40:10;;;;;;;11.40;2.28;;;;;;;;;;5047772;28;20044;-63
2024/01/04 12:43:14;;;;;;;21.40;3.40;;;;;;;;;;5047794;28;20068;-63
2024/01/04 12:46:22;;;;;;;16.00;3.65;;;19.00;99.80;;;;;;5048044;28;20052;-63
2024/01/04 12:49:26;;;;;;;16.08;3.60;;;;;;;;;;5047791;28;20048;-62
2024/01/04 12:52:30;;;;;;;18.55;2.90;;;;;;;;;;5047471;28;20419;-63
2024/01/04 12:55:35;;;;;;;13.55;3.00;;;;;;;;;;5048303;28;20052;-62
2024/01/04 12:58:39;;;;;;;8.13;2.55;;;;;;;;;;5051179;28;20412;-62
2024/01/04 13:01:44;;;;;;;9.48;2.90;;;;;;;;;;5051125;28;20036;-63
2024/01/04 13:04:48;;;;;;;13.23;2.42;;;;;;;;;;5051000;28;20041;-62
2024/01/04 13:07:53;;;;;;;22.35;3.40;;;;;;;;;;5050816;28;20060;-63
2024/01/04 13:10:57;;;;;;;18.60;3.75;;;;;;;;;;5051195;28;20117;-62
2024/01/04 13:14:01;;;;;;;16.33;4.03;;;;;;;;;;5050712;28;20064;-62
2024/01/04 13:17:06;;;;;;;15.68;3.40;;;;;;;;;;5050757;28;20396;-63
2024/01/04 13:20:10;;;;;;;18.67;3.03;;;;;;;;;;5050532;28;20044;-62
2024/01/04 13:23:15;;;;;;;16.85;7.85;;;;;;;;;;5050756;28;20048;-62
2024/01/04 13:26:19;;;;;;;14.75;3.60;;;;;;;;;;5050722;28;20047;-63
2024/01/04 13:29:24;;;;;;;15.70;2.95;;;;;;;;;;5050690;28;20052;-62
2024/01/04 13:32:28;;;;;;;13.00;2.58;;;;;;;;;;5050762;28;20051;-62
2024/01/04 13:35:32;;;;;;;13.73;3.47;;;;;;;;;;5098159;27;20044;-63
2024/01/04 13:38:37;;;;;;;18.83;3.60;;;;;;;;;;5050716;28;20044;-62
2024/01/04 13:41:44;;;;;;;11.48;2.83;;;;;;;;;;5050332;28;20048;-62
2024/01/04 13:44:48;;;;;;;14.93;3.13;;;;;;;;;;5050151;28;20040;-61
2024/01/04 13:47:52;;;;;;;15.70;3.67;;;;;;;;;;5050329;28;20040;-61
2024/01/04 13:50:58;;;;;;;17.77;2.70;;;;;;;;;;5050543;28;20044;-61
2024/01/04 13:54:03;;;;;;;12.93;3.78;;;;;;;;;;5049961;28;20060;-61
2024/01/04 13:57:07;;;;;;;18.27;3.47;;;;;;;;;;5050308;28;20044;-61
2024/01/04 14:00:11;;;;;;;22.55;3.28;;;;;;;;;;5050173;28;20044;-62
2024/01/04 14:03:16;;;;;;;21.55;3.70;;;;;;;;;;5050363;28;20048;-62
2024/01/04 14:06:21;;;;;;;15.90;3.45;;;;;;;;;;5050144;28;20168;-62
2024/01/04 14:09:25;;;;;;;24.77;3.50;;;;;;;;;;5050340;28;20060;-62
2024/01/04 14:12:32;;;;;;;12.05;3.50;;;;;;;;;;5050203;28;20048;-62
2024/01/04 14:15:36;;;;;;;24.35;3.92;;;;;;;;;;5050068;28;20057;-62
2024/01/04 14:18:41;;;;;;;12.48;4.00;;;;;;;;;;5049693;28;20056;-62
2024/01/04 14:21:44;;;;;;;12.77;3.70;;;;;;;;;;5049960;28;20055;-62
2024/01/04 14:24:49;;;;;;;15.15;3.60;;;;;;;;;;5049768;28;20044;-62
2024/01/04 14:27:53;;;;;;;27.08;5.63;;;;;;;;;;5050017;28;20044;-61
2024/01/04 14:30:58;;;;;;;27.52;4.57;;;;;;;;;;5049876;28;20044;-61
2024/01/04 14:34:02;;;;;;;16.95;4.10;;;;;;;;;;5049407;28;20040;-61
2024/01/04 14:37:06;;;;;;;23.73;4.32;;;;;;;;;;5049950;28;20508;-61
2024/01/04 14:40:18;;;;;;;17.00;3.92;;;17.90;99.90;;;;;;5097361;27;20049;-62
2024/01/04 14:43:22;;;;;;;16.20;3.20;;;;;;;;;;5049659;28;20040;-61
2024/01/04 14:46:28;;;;;;;18.77;4.03;;;;;;;;;;5049150;28;20056;-62
2024/01/04 14:49:42;;;;;;;32.08;4.35;;;17.80;99.90;;;;;;5049473;28;20368;-61
2024/01/04 14:52:46;;;;;;;17.77;3.92;;;;;;;;;;5049278;28;20056;-63
2024/01/04 14:55:50;;;;;;;22.65;4.45;;;;;;;;;;5049252;28;20063;-62
2024/01/04 14:58:55;;;;;;;22.23;4.22;;;;;;;;;;5049274;28;20052;-62
2024/01/04 15:01:59;;;;;;;17.73;5.10;;;;;;;;;;5048991;28;20052;-62
2024/01/04 15:05:04;;;;;;;16.27;3.80;;;;;;;;;;5048873;28;20048;-62
2024/01/04 15:08:08;;;;;;;25.60;3.92;;;;;;;;;;5049250;28;20052;-62
2024/01/04 15:11:12;;;;;;;19.25;4.70;;;;;;;;;;5049012;28;20051;-62
2024/01/04 15:14:17;;;;;;;25.23;4.30;;;;;;;;;;5048681;28;20055;-62
2024/01/04 15:17:21;;;;;;;19.63;3.65;;;;;;;;;;5049009;28;20119;-62
2024/01/04 15:20:27;;;;;;;31.35;4.70;;;;;;;;;;5048831;28;20048;-62
2024/01/04 15:23:31;;;;;;;37.95;5.45;;;;;;;;;;5048837;28;20048;-62
2024/01/04 15:26:35;;;;;;;26.45;5.38;;;;;;;;;;5048789;28;20052;-62
2024/01/04 15:29:40;;;;;;;27.25;4.35;;;;;;;;;;5048731;28;20499;-62
2024/01/04 15:32:44;;;;;;;22.45;4.80;;;;;;;;;;5048667;28;20048;-62
2024/01/04 15:35:50;;;;;;;33.08;4.75;;;;;;;;;;5048405;28;20412;-62
2024/01/04 15:38:55;;;;;;;23.88;4.63;;;;;;;;;;5048765;28;20044;-62
2024/01/04 15:41:59;;;;;;;27.40;6.03;;;;;;;;;;5048307;28;20508;-62
2024/01/04 15:45:05;;;;;;;28.23;4.80;;;;;;;;;;5048244;28;20048;-62
2024/01/04 15:48:13;;;;;;;31.08;4.57;;;16.70;99.90;;;;;;5048302;28;20654;-64
2024/01/04 15:51:17;;;;;;;24.23;4.60;;;;;;;;;;5048269;28;20588;-63
2024/01/04 15:54:21;;;;;;;34.60;5.60;;;;;;;;;;5047998;28;20052;-64
2024/01/04 15:57:25;;;;;;;26.83;4.85;;;;;;;;;;5048296;28;20051;-63
2024/01/04 16:00:30;;;;;;;32.58;5.97;;;;;;;;;;5048417;28;20392;-64
2024/01/04 16:03:34;;;;;;;36.05;6.32;;;;;;;;;;5047989;28;20055;-63
2024/01/04 16:06:38;;;;;;;28.95;5.55;;;;;;;;;;5048052;28;20044;-62
2024/01/04 16:09:43;;;;;;;39.75;6.80;;;;;;;;;;5048000;28;20115;-62
2024/01/04 16:12:47;;;;;;;43.33;6.38;;;;;;;;;;5048266;28;20052;-62
2024/01/04 16:15:52;;;;;;;51.17;6.72;;;;;;;;;;5047885;28;20048;-61
2024/01/04 16:18:56;;;;;;;38.53;14.88;;;;;;;;;;5047703;28;20071;-65
2024/01/04 16:22:01;;;;;;;44.25;7.82;;;;;;;;;;5047857;28;20537;-62
2024/01/04 16:25:06;;;;;;;43.75;7.07;;;;;;;;;;5048206;28;20052;-61
2024/01/04 16:28:11;;;;;;;38.70;7.57;;;;;;;;;;5048099;28;20400;-61
2024/01/04 16:31:15;;;;;;;28.08;6.25;;;;;;;;;;5047181;28;20048;-61
2024/01/04 16:34:19;;;;;;;28.73;6.78;;;;;;;;;;5047759;28;20044;-61
2024/01/04 16:37:23;;;;;;;38.05;8.10;;;;;;;;;;5047725;28;20051;-62
2024/01/04 16:40:28;;;;;;;38.50;8.48;;;;;;;;;;5047662;28;20064;-61
2024/01/04 16:43:32;;;;;;;43.70;8.60;;;;;;;;;;5047623;28;20047;-61
2024/01/04 16:46:36;;;;;;;42.20;8.05;;;;;;;;;;5047660;28;20052;-61
2024/01/04 16:49:41;;;;;;;46.85;9.02;;;;;;;;;;5047165;28;20511;-61
2024/01/04 16:52:45;;;;;;;29.33;7.07;;;;;;;;;;5047188;28;20053;-61
2024/01/04 16:55:49;;;;;;;36.47;9.93;;;;;;;;;;5094897;28;20064;-62
2024/01/04 16:58:54;;;;;;;42.22;8.85;;;;;;;;;;5047632;28;20048;-62
2024/01/04 17:02:18;;;;;;;61.25;11.80;;;;;;;;;;5083585;28;20048;-61
2024/01/04 17:05:43;;;;;;;47.20;10.00;;;;;;;;;;5084164;28;20044;-61
2024/01/04 17:08:47;;;;;;;40.58;11.25;;;;;;;;;;5047031;28;20052;-62
2024/01/04 17:11:52;;;;;;;56.63;13.10;;;16.00;99.90;;;;;;5047568;28;20040;-62
2024/01/04 17:14:56;;;;;;;48.50;11.13;;;;;;;;;;5047114;28;20060;-62
2024/01/04 17:18:01;;;;;;;49.25;11.88;;;;;;;;;;5046997;28;20052;-62
2024/01/04 17:21:05;;;;;;;49.15;11.65;;;;;;;;;;5047050;28;20056;-61
2024/01/04 17:24:09;;;;;;;50.45;10.57;;;;;;;;;;5047222;28;20048;-62
2024/01/04 17:27:14;;;;;;;61.65;11.20;;;;;;;;;;5047223;28;20201;-62
2024/01/04 17:30:21;;;;;;;48.75;11.70;;;;;;;;;;5047224;28;20048;-61
2024/01/04 17:33:25;;;;;;;57.13;13.55;;;;;;;;;;5047207;28;20052;-62
2024/01/04 17:36:29;;;;;;;53.35;13.65;;;;;;;;;;5046913;28;20060;-62
2024/01/04 17:39:34;;;;;;;46.13;8.52;;;;;;;;;;5047164;28;20064;-63
2024/01/04 17:42:38;;;;;;;40.88;10.27;;;;;;;;;;5049229;28;20574;-63
2024/01/04 17:45:42;;;;;;;39.70;9.77;;;;;;;;;;5050471;28;20098;-62
2024/01/04 17:48:46;;;;;;;35.63;9.57;;;;;;;;;;5050352;28;20048;-62
2024/01/04 17:51:51;;;;;;;38.67;10.27;;;;;;;;;;5049953;28;20037;-62